Terminal Aerodrome Forecast
Issued by NWS Binghamton, NY

Current Version | Previous Version | Text Only | Print | Product List | Glossary On
Versions: 1 2 3 4 5 6 7 8 9 10 11 12 13 14 15 16 17 18 19 20 21 22 23 24 25 26 27 28 29 30 31 32 33 34 35 36
000
FTUS41 KBGM 131740
TAFSYR
TAF
KSYR 131740Z 1318/1418 VRB04KT P6SM SCT050 SCT250
     FM140500 00000KT P6SM BKN050
     FM141500 27007G12KT P6SM -SHRA BKN030
     FM141700 28008G13KT 6SM -SHRA BR BKN028=

USA.gov is the U.S. government's official web portal to all federal, state and local government web resources and services.